Time;durP1;ratioP1;P1;durP2;ratioP2;P2;SDS_P1;SDS_P2;PMS_P1;PMS_P2;Temp;Humidity;BMP_temperature;BMP_pressure;BME280_temperature;BME280_humidity;BME280_pressure;Samples;Min_cycle;Max_cycle;Signal;HPM_P1;HPM_P2
2021/03/22 00:00:33;;;;;;;1.85;0.57;;;7.70;71.00;;;;;;4951471;28;20381;-79
2021/03/22 00:02:59;;;;;;;0.15;0.00;;;7.70;71.00;;;;;;4949129;29;20047;-79
2021/03/22 00:05:25;;;;;;;0.15;0.00;;;7.60;71.00;;;;;;4960728;28;20518;-79
2021/03/22 00:07:52;;;;;;;1.13;0.40;;;7.60;70.90;;;;;;4921503;28;20059;-79
2021/03/22 00:10:19;;;;;;;8.20;0.22;;;7.60;70.90;;;;;;4954996;28;20034;-79
2021/03/22 00:12:46;;;;;;;0.35;0.10;;;7.60;71.00;;;;;;4951602;28;20039;-79
2021/03/22 00:15:13;;;;;;;1.65;0.55;;;7.60;70.90;;;;;;4956913;28;20035;-79
2021/03/22 00:17:39;;;;;;;0.10;0.05;;;7.60;71.00;;;;;;4966686;28;20032;-79
2021/03/22 00:20:06;;;;;;;0.88;0.60;;;7.50;70.90;;;;;;4947797;29;20039;-79
2021/03/22 00:22:32;;;;;;;0.65;0.35;;;7.50;71.00;;;;;;4940957;28;20019;-79
2021/03/22 00:24:58;;;;;;;4.55;1.05;;;7.50;71.00;;;;;;4953820;28;20408;-79
2021/03/22 00:27:24;;;;;;;0.70;0.30;;;7.50;71.00;;;;;;4968798;28;20039;-79
2021/03/22 00:29:50;;;;;;;0.20;0.17;;;7.50;71.00;;;;;;4946415;29;20039;-78
2021/03/22 00:32:17;;;;;;;0.73;0.32;;;7.40;71.00;;;;;;4960035;28;20038;-79
2021/03/22 00:34:43;;;;;;;0.52;0.20;;;7.40;71.10;;;;;;4951944;28;20038;-78
2021/03/22 00:37:09;;;;;;;1.27;0.63;;;7.30;71.00;;;;;;4970194;28;20439;-79
2021/03/22 00:39:35;;;;;;;0.98;0.47;;;7.30;71.00;;;;;;4949684;28;20027;-80
2021/03/22 00:42:01;;;;;;;3.47;0.77;;;7.30;71.00;;;;;;4955925;28;20046;-78
2021/03/22 00:44:27;;;;;;;0.80;0.20;;;7.30;70.90;;;;;;4963415;28;20473;-79
2021/03/22 00:46:54;;;;;;;0.73;0.35;;;7.30;70.90;;;;;;4958619;28;20058;-78
2021/03/22 00:49:20;;;;;;;2.78;0.45;;;7.30;70.90;;;;;;4937817;28;20042;-80
2021/03/22 00:51:46;;;;;;;0.25;0.10;;;7.30;70.90;;;;;;4970936;28;20042;-78
2021/03/22 00:54:12;;;;;;;0.00;0.00;;;7.30;70.90;;;;;;4939830;28;20488;-80
2021/03/22 00:56:39;;;;;;;1.45;0.32;;;7.30;70.90;;;;;;4945583;29;20047;-78
2021/03/22 00:59:05;;;;;;;1.00;0.25;;;7.20;70.80;;;;;;4960315;28;20031;-79
2021/03/22 01:01:31;;;;;;;2.78;0.25;;;7.20;70.80;;;;;;4951865;28;20476;-79
2021/03/22 01:03:57;;;;;;;0.32;0.22;;;7.20;70.90;;;;;;4953042;28;20042;-79
2021/03/22 01:06:23;;;;;;;0.40;0.10;;;7.20;70.90;;;;;;4951158;28;20415;-79
2021/03/22 01:08:49;;;;;;;3.70;0.68;;;7.10;70.90;;;;;;4965964;28;20051;-79
2021/03/22 01:11:17;;;;;;;2.72;0.77;;;7.10;70.80;;;;;;4965865;28;20034;-79
2021/03/22 01:13:46;;;;;;;0.32;0.20;;;7.10;70.80;;;;;;4948121;28;20031;-79
2021/03/22 01:16:12;;;;;;;0.20;0.10;;;7.10;70.90;;;;;;4940468;28;20034;-80
2021/03/22 01:18:40;;;;;;;0.00;0.00;;;7.10;70.90;;;;;;4973791;28;20031;-79
2021/03/22 01:21:06;;;;;;;2.65;0.77;;;7.00;70.90;;;;;;4955127;28;20026;-79
2021/03/22 01:23:33;;;;;;;0.20;0.10;;;7.00;70.90;;;;;;4965041;28;20043;-79
2021/03/22 01:25:59;;;;;;;1.60;0.40;;;7.00;70.90;;;;;;4963904;28;20480;-78
2021/03/22 01:28:25;;;;;;;0.10;0.00;;;7.00;70.90;;;;;;4944589;28;20054;-79
2021/03/22 01:30:58;;;;;;;0.65;0.40;;;7.00;70.90;;;;;;4956817;28;20034;-79
2021/03/22 01:33:26;;;;;;;4.17;0.90;;;7.00;70.90;;;;;;4955666;28;20030;-79
2021/03/22 01:35:54;;;;;;;0.00;0.00;;;7.00;70.90;;;;;;4949501;29;20035;-78
2021/03/22 01:38:20;;;;;;;1.42;0.65;;;6.90;70.70;;;;;;4944461;29;20035;-78
2021/03/22 01:41:34;;;;;;;0.68;0.43;;;6.90;70.80;;;;;;4962579;28;20037;-78
2021/03/22 01:44:13;;;;;;;0.80;0.30;;;6.90;70.80;;;;;;4964190;28;20050;-79
2021/03/22 01:46:41;;;;;;;0.20;0.13;;;6.90;70.80;;;;;;4968892;28;20043;-79
2021/03/22 01:49:07;;;;;;;0.82;0.40;;;6.80;70.80;;;;;;4944224;28;20496;-79
2021/03/22 01:51:34;;;;;;;1.13;0.43;;;6.80;70.80;;;;;;4971879;28;20452;-79
2021/03/22 01:54:00;;;;;;;5.82;1.02;;;6.80;70.90;;;;;;4969964;28;20490;-79
2021/03/22 01:56:31;;;;;;;0.10;0.00;;;6.70;70.90;;;;;;4966361;28;20031;-80
2021/03/22 01:58:57;;;;;;;1.05;0.22;;;6.70;71.70;;;;;;4966555;28;20047;-79
2021/03/22 02:01:24;;;;;;;0.98;0.38;;;6.70;70.80;;;;;;4946083;28;20030;-79
2021/03/22 02:03:50;;;;;;;0.30;0.10;;;6.70;70.90;;;;;;4972669;28;20038;-79
2021/03/22 02:06:17;;;;;;;0.45;0.30;;;6.70;70.90;;;;;;4959229;28;20050;-79
2021/03/22 02:08:44;;;;;;;0.17;0.08;;;6.60;70.80;;;;;;4933243;29;20054;-78
2021/03/22 02:11:21;;;;;;;1.98;0.63;;;6.60;70.80;;;;;;4948232;28;20023;-79
2021/03/22 02:13:47;;;;;;;0.22;0.22;;;6.60;70.90;;;;;;4943161;28;20031;-78
2021/03/22 02:16:24;;;;;;;0.30;0.20;;;6.60;70.90;;;;;;4969952;28;20494;-79
2021/03/22 02:19:09;;;;;;;0.20;0.10;;;6.60;71.00;;;;;;4938278;28;20420;-79
2021/03/22 02:21:44;;;;;;;2.77;0.60;;;6.50;70.90;;;;;;4954826;28;20039;-80
2021/03/22 02:24:41;;;;;;;0.83;0.10;;;6.50;70.90;;;;;;4969575;28;20042;-79
2021/03/22 02:27:16;;;;;;;1.35;0.30;;;6.50;71.00;;;;;;4965950;28;20038;-79
2021/03/22 02:30:01;;;;;;;0.80;0.47;;;6.40;71.00;;;;;;4966805;28;20043;-79
2021/03/22 02:32:55;;;;;;;0.40;0.20;;;6.40;71.00;;;;;;4968226;28;20472;-79
2021/03/22 02:35:27;;;;;;;1.55;0.32;;;6.40;70.90;;;;;;4968614;28;20023;-79
2021/03/22 02:37:58;;;;;;;0.82;0.13;;;6.40;70.90;;;;;;4948827;28;20023;-79
2021/03/22 02:40:37;;;;;;;0.00;0.00;;;6.40;70.90;;;;;;4944651;28;20059;-78
2021/03/22 02:43:04;;;;;;;0.10;0.03;;;6.40;70.90;;;;;;4942668;28;20042;-80
2021/03/22 02:45:38;;;;;;;1.73;0.50;;;6.30;70.90;;;;;;4954193;28;20042;-79
2021/03/22 02:48:05;;;;;;;0.33;0.07;;;6.30;71.00;;;;;;4962679;28;20039;-79
2021/03/22 02:50:39;;;;;;;0.47;0.20;;;6.30;71.10;;;;;;4945609;28;20051;-79
2021/03/22 02:53:42;;;;;;;0.23;0.13;;;6.20;71.10;;;;;;4945948;28;20027;-79
2021/03/22 02:56:36;;;;;;;1.70;0.43;;;6.20;71.10;;;;;;4967711;28;20038;-79
2021/03/22 02:59:12;;;;;;;0.00;0.00;;;6.20;71.20;;;;;;4969730;28;20037;-79
2021/03/22 03:01:46;;;;;;;0.67;0.10;;;6.10;71.10;;;;;;4935365;28;20097;-79
2021/03/22 03:04:14;;;;;;;16.73;0.50;;;6.10;71.20;;;;;;4938784;28;20023;-78
2021/03/22 03:07:01;;;;;;;0.40;0.17;;;6.10;71.30;;;;;;4950995;28;20392;-78
2021/03/22 03:09:30;;;;;;;12.53;0.40;;;6.00;71.20;;;;;;4954233;28;20408;-78
2021/03/22 03:12:01;;;;;;;2.33;0.50;;;6.00;71.30;;;;;;4936611;29;20035;-79
2021/03/22 03:14:27;;;;;;;0.00;0.00;;;6.00;71.30;;;;;;4959927;28;20428;-79
2021/03/22 03:16:53;;;;;;;0.00;0.00;;;6.00;72.10;;;;;;4968070;28;20031;-80
2021/03/22 03:19:19;;;;;;;0.50;0.20;;;6.00;71.30;;;;;;4953695;28;20411;-80
2021/03/22 03:21:45;;;;;;;0.73;0.20;;;5.90;71.30;;;;;;4953665;28;20038;-78
2021/03/22 03:24:11;;;;;;;0.10;0.00;;;5.90;71.40;;;;;;4973705;28;20444;-79
2021/03/22 03:26:37;;;;;;;0.30;0.10;;;5.90;71.40;;;;;;4968565;28;20519;-83
2021/03/22 03:29:04;;;;;;;1.13;0.33;;;5.90;71.40;;;;;;4951698;28;20054;-79
2021/03/22 03:31:31;;;;;;;3.30;0.70;;;5.90;71.40;;;;;;4939363;28;20035;-79
2021/03/22 03:33:57;;;;;;;0.93;0.30;;;5.90;71.40;;;;;;4954799;28;20039;-79
2021/03/22 03:36:23;;;;;;;15.47;0.40;;;5.90;71.40;;;;;;4967923;28;20034;-79
2021/03/22 03:38:49;;;;;;;0.33;0.20;;;5.90;72.10;;;;;;4960657;28;20027;-80
2021/03/22 03:41:15;;;;;;;2.87;0.30;;;5.90;71.40;;;;;;4947072;28;20480;-78
2021/03/22 03:43:41;;;;;;;5.07;0.20;;;5.90;71.30;;;;;;4955414;28;20042;-79
2021/03/22 03:46:07;;;;;;;0.23;0.07;;;5.90;71.30;;;;;;4969439;28;20396;-79
2021/03/22 03:48:33;;;;;;;1.50;0.20;;;5.90;71.30;;;;;;4966014;28;20057;-80
2021/03/22 03:51:00;;;;;;;2.78;0.52;;;5.90;71.30;;;;;;4936302;28;20392;-78
2021/03/22 03:53:27;;;;;;;0.60;0.20;;;5.90;71.30;;;;;;4946468;29;20061;-79
2021/03/22 03:55:54;;;;;;;0.57;0.10;;;5.90;71.30;;;;;;4944209;28;20038;-79
2021/03/22 03:58:20;;;;;;;0.97;0.30;;;5.90;71.30;;;;;;4948526;29;20468;-78
2021/03/22 04:00:46;;;;;;;0.50;0.10;;;5.90;71.20;;;;;;4967286;28;20034;-79
2021/03/22 04:03:29;;;;;;;1.13;0.37;;;5.90;71.20;;;;;;4957154;28;20046;-78
2021/03/22 04:05:59;;;;;;;2.93;0.23;;;5.80;71.10;;;;;;4967782;28;20519;-78
2021/03/22 04:08:25;;;;;;;5.83;0.77;;;5.80;71.20;;;;;;4960903;28;20030;-78
2021/03/22 04:10:52;;;;;;;2.10;0.83;;;5.80;71.20;;;;;;4942738;28;20042;-79
2021/03/22 04:13:18;;;;;;;1.07;0.40;;;5.80;71.30;;;;;;4951363;28;20023;-79
2021/03/22 04:15:44;;;;;;;0.67;0.37;;;5.80;71.30;;;;;;4967438;28;20042;-78
2021/03/22 04:18:11;;;;;;;2.73;0.23;;;5.80;71.30;;;;;;4956719;28;20031;-85
2021/03/22 04:20:37;;;;;;;0.20;0.20;;;5.80;71.30;;;;;;4961110;28;20035;-78
2021/03/22 04:23:03;;;;;;;0.10;0.10;;;5.70;71.30;;;;;;4959595;28;20043;-79
2021/03/22 04:25:29;;;;;;;1.20;0.40;;;5.70;71.30;;;;;;4967019;28;20041;-78
2021/03/22 04:27:55;;;;;;;0.00;0.00;;;5.70;71.30;;;;;;4938386;28;20047;-79
2021/03/22 04:30:22;;;;;;;2.37;0.70;;;5.70;71.40;;;;;;4969450;28;20046;-79
2021/03/22 04:32:49;;;;;;;0.57;0.25;;;5.70;71.40;;;;;;4944143;28;20035;-79
2021/03/22 04:35:15;;;;;;;0.40;0.10;;;5.70;71.40;;;;;;4960491;28;20041;-78
2021/03/22 04:37:41;;;;;;;0.00;0.00;;;5.70;71.40;;;;;;4966425;28;20039;-79
2021/03/22 04:40:08;;;;;;;0.20;0.00;;;5.60;71.40;;;;;;4969104;28;20039;-80
2021/03/22 04:42:34;;;;;;;0.10;0.10;;;5.60;71.40;;;;;;4970023;28;20038;-80
2021/03/22 04:45:00;;;;;;;2.87;0.33;;;5.60;71.40;;;;;;4960795;28;20037;-79
2021/03/22 04:47:27;;;;;;;0.40;0.23;;;5.60;71.50;;;;;;4951063;28;20034;-80
2021/03/22 04:49:53;;;;;;;0.10;0.07;;;5.50;71.40;;;;;;4966364;28;20049;-79
2021/03/22 04:52:19;;;;;;;0.50;0.10;;;5.50;71.50;;;;;;4969345;28;20027;-82
2021/03/22 04:54:45;;;;;;;0.77;0.70;;;5.50;71.50;;;;;;4970737;28;20476;-79
2021/03/22 04:57:32;;;;;;;0.80;0.20;;;5.40;71.60;;;;;;4940058;28;20041;-78
2021/03/22 04:59:59;;;;;;;5.77;0.67;;;5.40;72.30;;;;;;4966276;28;20050;-79
2021/03/22 05:02:25;;;;;;;1.43;0.40;;;5.40;71.50;;;;;;4945072;28;20031;-79
2021/03/22 05:04:51;;;;;;;0.87;0.30;;;5.40;71.60;;;;;;4959860;28;20452;-78
2021/03/22 05:07:18;;;;;;;2.00;0.77;;;5.40;71.60;;;;;;4943474;28;20500;-79
2021/03/22 05:09:44;;;;;;;0.23;0.20;;;5.30;71.60;;;;;;4928708;29;20043;-79
2021/03/22 05:12:11;;;;;;;0.47;0.10;;;5.30;71.60;;;;;;4938071;29;20039;-79
2021/03/22 05:14:37;;;;;;;0.00;0.00;;;5.30;71.70;;;;;;4927724;29;20046;-78
2021/03/22 05:17:03;;;;;;;0.10;0.00;;;5.30;71.60;;;;;;4926497;29;20043;-79
2021/03/22 05:19:30;;;;;;;0.60;0.40;;;5.20;71.60;;;;;;4906741;29;20032;-78
2021/03/22 05:21:56;;;;;;;0.23;0.10;;;5.20;71.60;;;;;;4916296;29;20789;-79
2021/03/22 05:24:23;;;;;;;0.20;0.10;;;5.20;71.70;;;;;;4938234;29;20028;-79
2021/03/22 05:26:49;;;;;;;2.07;0.67;;;5.20;71.80;;;;;;4929089;29;20032;-81
2021/03/22 05:29:16;;;;;;;0.07;0.00;;;5.20;71.80;;;;;;4937401;29;20043;-78
2021/03/22 05:31:42;;;;;;;0.20;0.20;;;5.10;71.80;;;;;;4926797;28;20052;-79
2021/03/22 05:34:08;;;;;;;0.30;0.20;;;5.10;71.80;;;;;;4931274;29;20044;-78
2021/03/22 05:36:34;;;;;;;1.67;0.27;;;5.10;71.80;;;;;;4931234;29;20028;-79
2021/03/22 05:39:00;;;;;;;2.90;0.50;;;5.10;71.90;;;;;;4927877;29;20043;-79
2021/03/22 05:41:27;;;;;;;0.60;0.47;;;5.00;71.90;;;;;;4927532;29;20039;-79
2021/03/22 05:43:55;;;;;;;4.57;0.23;;;5.00;71.90;;;;;;4930412;29;20039;-78
2021/03/22 05:46:27;;;;;;;0.03;0.03;;;5.00;72.00;;;;;;4943480;28;20501;-78
2021/03/22 05:49:17;;;;;;;0.30;0.20;;;5.00;72.10;;;;;;4946301;29;20409;-79
2021/03/22 05:51:48;;;;;;;0.10;0.10;;;4.90;72.00;;;;;;4933877;29;20481;-79
2021/03/22 05:54:14;;;;;;;0.20;0.17;;;4.90;72.10;;;;;;4935861;29;20032;-79
2021/03/22 05:56:49;;;;;;;0.10;0.10;;;4.90;72.10;;;;;;4927488;29;20052;-78
2021/03/22 05:59:24;;;;;;;1.50;0.30;;;4.90;72.20;;;;;;4925367;29;20028;-79
2021/03/22 06:01:53;;;;;;;0.10;0.10;;;4.90;72.90;;;;;;4917612;29;20036;-78
2021/03/22 06:04:23;;;;;;;0.00;0.00;;;4.80;72.10;;;;;;4947512;28;20462;-79
2021/03/22 06:06:49;;;;;;;0.55;0.10;;;4.80;72.10;;;;;;4948407;28;20051;-80
2021/03/22 06:09:36;;;;;;;0.20;0.10;;;4.80;72.20;;;;;;4927679;29;20051;-79
2021/03/22 06:12:23;;;;;;;1.13;0.60;;;4.80;72.10;;;;;;4933171;29;20023;-78
2021/03/22 06:15:00;;;;;;;0.27;0.03;;;4.80;72.10;;;;;;4925407;29;20404;-78
2021/03/22 06:17:40;;;;;;;1.03;0.43;;;4.80;72.10;;;;;;4942521;28;20044;-78
2021/03/22 06:20:16;;;;;;;1.33;0.22;;;4.90;72.20;;;;;;4933614;29;20019;-78
2021/03/22 06:22:42;;;;;;;0.67;0.47;;;4.80;72.10;;;;;;4916495;29;20035;-79
2021/03/22 06:25:16;;;;;;;0.63;0.27;;;4.80;72.10;;;;;;4919937;29;20507;-78
2021/03/22 06:27:42;;;;;;;0.60;0.10;;;4.80;72.10;;;;;;4946256;29;20028;-79
2021/03/22 06:30:15;;;;;;;0.53;0.33;;;4.80;72.20;;;;;;4939890;28;20052;-79
2021/03/22 06:32:44;;;;;;;0.20;0.10;;;4.80;72.20;;;;;;4916545;29;20035;-79
2021/03/22 06:35:14;;;;;;;0.00;0.00;;;4.80;72.30;;;;;;4924753;29;20055;-79
2021/03/22 06:37:40;;;;;;;0.10;0.10;;;4.80;72.30;;;;;;4933445;29;20480;-79
2021/03/22 06:40:30;;;;;;;1.97;0.30;;;4.90;72.30;;;;;;4935436;29;20033;-79
2021/03/22 06:43:12;;;;;;;1.23;0.53;;;4.90;72.30;;;;;;4932349;29;20036;-78
2021/03/22 06:45:43;;;;;;;0.30;0.17;;;5.00;72.20;;;;;;4935284;29;20039;-78
2021/03/22 06:48:18;;;;;;;0.45;0.13;;;5.10;72.10;;;;;;4932018;29;20032;-79
2021/03/22 06:50:45;;;;;;;0.40;0.40;;;5.40;71.70;;;;;;4931248;29;20040;-80
2021/03/22 06:53:12;;;;;;;4.37;0.90;;;5.60;71.10;;;;;;4924373;29;20023;-78
2021/03/22 06:55:41;;;;;;;0.07;0.00;;;5.90;70.70;;;;;;4916372;29;20040;-79
2021/03/22 06:58:19;;;;;;;0.40;0.20;;;6.20;70.30;;;;;;4932281;29;20031;-79
2021/03/22 07:00:45;;;;;;;0.63;0.30;;;6.30;69.90;;;;;;4929480;28;20051;-79
2021/03/22 07:03:26;;;;;;;0.07;0.00;;;6.40;69.90;;;;;;4914903;29;20382;-79
2021/03/22 07:05:52;;;;;;;17.13;0.28;;;6.50;69.90;;;;;;4945138;28;20050;-79
2021/03/22 07:08:36;;;;;;;0.30;0.30;;;6.70;69.80;;;;;;4949720;29;20035;-79
2021/03/22 07:11:02;;;;;;;1.90;0.57;;;6.70;69.50;;;;;;4962087;28;20035;-79
2021/03/22 07:13:29;;;;;;;0.27;0.27;;;6.80;69.50;;;;;;4968708;28;20023;-79
2021/03/22 07:15:56;;;;;;;0.73;0.45;;;6.90;69.40;;;;;;4969632;28;20035;-80
2021/03/22 07:18:32;;;;;;;2.20;0.10;;;7.00;69.30;;;;;;4953149;28;20030;-79
2021/03/22 07:21:15;;;;;;;0.10;0.00;;;7.10;69.30;;;;;;4934136;29;20069;-79
2021/03/22 07:23:46;;;;;;;3.10;0.50;;;7.20;69.20;;;;;;4925056;29;20051;-79
2021/03/22 07:26:32;;;;;;;0.10;0.05;;;7.30;69.10;;;;;;4947689;28;20035;-79
2021/03/22 07:29:26;;;;;;;0.10;0.10;;;7.40;69.00;;;;;;4962901;28;20058;-79
2021/03/22 07:32:04;;;;;;;1.15;0.20;;;7.50;68.80;;;;;;4956057;28;20039;-79
2021/03/22 07:34:51;;;;;;;0.05;0.00;;;7.70;69.50;;;;;;4942464;29;20031;-78
2021/03/22 07:37:31;;;;;;;0.32;0.17;;;7.80;68.50;;;;;;4958023;28;20042;-79
2021/03/22 07:40:09;;;;;;;0.38;0.13;;;7.90;68.30;;;;;;4957525;28;20027;-79
2021/03/22 07:43:33;;;;;;;0.30;0.20;;;8.00;68.20;;;;;;4972746;28;20050;-80
2021/03/22 07:46:23;;;;;;;0.40;0.28;;;8.10;68.10;;;;;;4895217;29;20039;-79
2021/03/22 07:49:03;;;;;;;0.22;0.22;;;8.20;67.90;;;;;;4895830;29;20039;-79
2021/03/22 07:51:51;;;;;;;0.00;0.00;;;8.30;67.90;;;;;;4896086;29;20502;-79
2021/03/22 07:54:27;;;;;;;0.85;0.22;;;8.40;67.70;;;;;;4896254;29;20044;-80
2021/03/22 07:57:03;;;;;;;0.30;0.00;;;8.50;67.50;;;;;;4895186;29;20145;-80
2021/03/22 07:59:32;;;;;;;0.13;0.13;;;8.60;67.30;;;;;;4880959;29;20051;-79
2021/03/22 08:02:04;;;;;;;3.78;0.20;;;8.60;67.20;;;;;;4894884;29;20028;-79
2021/03/22 08:05:05;;;;;;;0.00;0.00;;;8.70;67.10;;;;;;4895574;29;20450;-78
2021/03/22 08:07:57;;;;;;;0.00;0.00;;;8.90;67.00;;;;;;4839738;29;20053;-79
2021/03/22 08:10:42;;;;;;;0.00;0.00;;;9.00;66.60;;;;;;4838742;29;20053;-79
2021/03/22 08:13:35;;;;;;;1.40;0.70;;;9.00;66.50;;;;;;4810628;29;20046;-82
2021/03/22 08:16:16;;;;;;;1.85;0.15;;;9.10;66.40;;;;;;4837136;29;20051;-80
2021/03/22 08:19:02;;;;;;;0.75;0.10;;;9.20;66.20;;;;;;4909022;29;20041;-79
2021/03/22 08:21:38;;;;;;;0.55;0.15;;;9.20;65.90;;;;;;4899825;29;20513;-79
2021/03/22 08:24:12;;;;;;;2.10;0.98;;;9.20;65.80;;;;;;4898426;29;20397;-79
2021/03/22 08:26:43;;;;;;;0.20;0.20;;;9.20;65.90;;;;;;4877809;29;20051;-79
2021/03/22 08:29:21;;;;;;;5.10;0.17;;;9.30;65.80;;;;;;4906661;29;20391;-81
2021/03/22 08:32:26;;;;;;;0.47;0.22;;;9.30;65.60;;;;;;4899245;29;20041;-83
2021/03/22 08:34:58;;;;;;;0.28;0.10;;;9.40;65.60;;;;;;4895759;29;20040;-79
2021/03/22 08:37:38;;;;;;;0.05;0.00;;;9.50;65.60;;;;;;4910220;29;20049;-79
2021/03/22 08:40:27;;;;;;;4.90;0.65;;;9.70;65.40;;;;;;4912465;29;20157;-79
2021/03/22 08:43:06;;;;;;;0.10;0.10;;;9.80;65.00;;;;;;4892128;29;20991;-79
2021/03/22 08:45:41;;;;;;;0.43;0.08;;;9.90;64.80;;;;;;4947305;28;20038;-79
2021/03/22 08:48:25;;;;;;;3.13;0.77;;;10.00;64.40;;;;;;4948369;28;20567;-79
2021/03/22 08:50:51;;;;;;;0.30;0.17;;;10.00;64.30;;;;;;4959860;28;20062;-79
2021/03/22 08:53:19;;;;;;;0.82;0.40;;;10.20;64.20;;;;;;4934104;29;20035;-79
2021/03/22 08:55:53;;;;;;;0.45;0.20;;;10.20;63.90;;;;;;4941670;28;20035;-79
2021/03/22 08:58:26;;;;;;;0.52;0.10;;;10.30;63.60;;;;;;4939204;28;20035;-79
2021/03/22 09:01:08;;;;;;;1.73;0.30;;;10.40;63.40;;;;;;4952919;28;20027;-79
2021/03/22 09:03:38;;;;;;;0.17;0.10;;;10.50;63.40;;;;;;4954513;28;20042;-79
2021/03/22 09:06:07;;;;;;;0.00;0.00;;;10.70;63.20;;;;;;4942455;29;20070;-79
2021/03/22 09:08:55;;;;;;;0.38;0.17;;;10.80;62.90;;;;;;4957864;28;20047;-79
2021/03/22 09:11:28;;;;;;;0.63;0.52;;;10.80;62.50;;;;;;4964157;28;20043;-80
2021/03/22 09:14:13;;;;;;;0.00;0.00;;;11.00;62.60;;;;;;4967768;28;20039;-79
2021/03/22 09:16:49;;;;;;;0.00;0.00;;;11.10;61.80;;;;;;4950907;28;20492;-79
2021/03/22 09:19:16;;;;;;;0.75;0.40;;;11.00;61.50;;;;;;4938462;28;20392;-79
2021/03/22 09:21:43;;;;;;;2.90;0.90;;;10.80;61.70;;;;;;4970379;28;20376;-79
2021/03/22 09:24:43;;;;;;;0.85;0.50;;;10.80;62.00;;;;;;4939101;28;20043;-79
2021/03/22 09:27:22;;;;;;;4.30;0.95;;;11.00;61.90;;;;;;4968581;28;20044;-79
2021/03/22 09:29:57;;;;;;;0.05;0.00;;;11.00;61.40;;;;;;4966006;28;20480;-79
2021/03/22 09:32:24;;;;;;;0.98;0.43;;;11.00;61.50;;;;;;4965264;28;20030;-79
2021/03/22 09:35:01;;;;;;;1.02;0.43;;;11.10;61.50;;;;;;4965866;28;20032;-79
2021/03/22 09:37:42;;;;;;;0.85;0.17;;;11.10;61.30;;;;;;4947909;29;20480;-79
2021/03/22 09:40:13;;;;;;;0.10;0.00;;;11.20;61.10;;;;;;4973540;28;20030;-79
2021/03/22 09:42:39;;;;;;;2.70;0.45;;;11.20;61.10;;;;;;4969240;28;20492;-80
2021/03/22 09:45:12;;;;;;;0.25;0.03;;;11.20;61.10;;;;;;4969936;28;20046;-79
2021/03/22 09:47:40;;;;;;;0.68;0.00;;;11.30;60.70;;;;;;4949187;29;20031;-80
2021/03/22 09:50:15;;;;;;;1.50;0.35;;;11.20;60.70;;;;;;4945169;29;20081;-80
2021/03/22 09:52:51;;;;;;;0.80;0.10;;;11.40;60.70;;;;;;4958619;28;20032;-80
2021/03/22 09:55:26;;;;;;;0.40;0.10;;;11.40;60.20;;;;;;4945089;28;20031;-79
2021/03/22 09:57:56;;;;;;;0.65;0.40;;;11.50;60.10;;;;;;4956637;28;20039;-79
2021/03/22 10:00:28;;;;;;;1.23;0.15;;;11.70;59.80;;;;;;4954201;28;20039;-79
2021/03/22 10:02:58;;;;;;;0.15;0.08;;;11.80;59.50;;;;;;4948812;29;20495;-79
2021/03/22 10:05:24;;;;;;;0.63;0.10;;;11.90;59.20;;;;;;4945277;29;20039;-80
2021/03/22 10:07:58;;;;;;;2.80;0.32;;;11.80;59.00;;;;;;4961113;28;20039;-81
2021/03/22 10:10:33;;;;;;;0.15;0.08;;;11.70;59.20;;;;;;4956401;28;20041;-79
2021/03/22 10:13:16;;;;;;;0.00;0.00;;;11.50;59.30;;;;;;4940880;28;20030;-79
2021/03/22 10:16:05;;;;;;;0.32;0.00;;;11.30;59.20;;;;;;4943580;28;20031;-79
2021/03/22 10:18:42;;;;;;;0.35;0.00;;;11.10;59.40;;;;;;4976177;28;20039;-79
2021/03/22 10:21:13;;;;;;;3.53;0.60;;;11.00;59.40;;;;;;4962395;28;20031;-79
2021/03/22 10:23:59;;;;;;;0.00;0.00;;;10.90;59.30;;;;;;4962881;28;20039;-79
2021/03/22 10:26:38;;;;;;;0.10;0.10;;;10.90;59.30;;;;;;4928047;29;20047;-79
2021/03/22 10:29:20;;;;;;;0.75;0.45;;;10.80;58.80;;;;;;4947031;28;20031;-79
2021/03/22 10:32:03;;;;;;;1.73;0.63;;;10.70;59.10;;;;;;4968221;28;20058;-79
2021/03/22 10:34:49;;;;;;;1.73;0.52;;;10.80;59.10;;;;;;4936561;29;20039;-79
2021/03/22 10:37:23;;;;;;;0.63;0.15;;;10.90;59.10;;;;;;4943039;28;20042;-79
2021/03/22 10:39:49;;;;;;;1.45;0.60;;;11.10;58.80;;;;;;4970568;28;20030;-79
2021/03/22 10:42:22;;;;;;;1.13;0.30;;;11.30;58.40;;;;;;4945182;28;20472;-79
2021/03/22 10:44:48;;;;;;;0.32;0.32;;;11.40;58.30;;;;;;4964291;28;20023;-79
2021/03/22 10:47:16;;;;;;;0.55;0.10;;;11.50;58.20;;;;;;4942977;28;20039;-79
2021/03/22 10:49:43;;;;;;;2.50;0.85;;;11.70;58.00;;;;;;4958138;28;20039;-80
2021/03/22 10:52:26;;;;;;;1.88;0.43;;;11.80;57.70;;;;;;4955461;28;20046;-79
2021/03/22 10:54:52;;;;;;;0.68;0.32;;;11.90;57.60;;;;;;4970590;28;20027;-79
2021/03/22 10:57:35;;;;;;;0.00;0.00;;;11.90;57.30;;;;;;4952873;28;20035;-80
2021/03/22 11:00:14;;;;;;;0.77;0.40;;;12.00;57.10;;;;;;4964927;28;20038;-79
2021/03/22 11:02:48;;;;;;;3.70;1.02;;;12.10;57.10;;;;;;4958597;28;20036;-80
2021/03/22 11:05:15;;;;;;;6.93;0.10;;;12.20;57.10;;;;;;4958486;28;20042;-81
2021/03/22 11:07:41;;;;;;;4.93;0.40;;;12.40;56.80;;;;;;4960417;28;20416;-80
2021/03/22 11:10:14;;;;;;;0.05;0.00;;;12.40;56.50;;;;;;4953471;28;20107;-80
2021/03/22 11:12:44;;;;;;;0.43;0.10;;;12.50;56.70;;;;;;4971865;28;20031;-79
2021/03/22 11:15:16;;;;;;;1.60;0.03;;;12.50;56.40;;;;;;4957885;28;20038;-79
2021/03/22 11:17:42;;;;;;;0.57;0.43;;;12.50;56.20;;;;;;4947194;29;20520;-79
2021/03/22 11:20:09;;;;;;;1.15;0.60;;;12.40;55.90;;;;;;4942237;28;20039;-79
2021/03/22 11:22:45;;;;;;;4.03;0.63;;;12.50;56.10;;;;;;4956821;28;20043;-80
2021/03/22 11:25:32;;;;;;;0.80;0.47;;;12.60;55.60;;;;;;4939474;28;20043;-81
2021/03/22 11:28:02;;;;;;;3.92;0.40;;;12.60;54.70;;;;;;4955887;28;20054;-80
2021/03/22 11:30:34;;;;;;;3.83;0.50;;;12.50;54.60;;;;;;4953340;28;20046;-80
2021/03/22 11:33:05;;;;;;;0.82;0.30;;;12.60;54.90;;;;;;4962942;28;20038;-80
2021/03/22 11:35:31;;;;;;;0.57;0.20;;;12.90;55.00;;;;;;4942523;29;20031;-80
2021/03/22 11:38:00;;;;;;;7.80;0.73;;;13.30;54.60;;;;;;4959666;28;20042;-80
2021/03/22 11:40:28;;;;;;;0.40;0.17;;;13.50;54.00;;;;;;4939090;28;20031;-80
2021/03/22 11:43:02;;;;;;;0.00;0.00;;;13.50;54.00;;;;;;4954924;28;20030;-80
2021/03/22 11:45:36;;;;;;;0.00;0.00;;;13.40;53.70;;;;;;4952691;28;20023;-80
2021/03/22 11:48:02;;;;;;;0.55;0.10;;;13.40;53.70;;;;;;4963970;28;20035;-80
2021/03/22 11:50:39;;;;;;;1.40;0.40;;;13.30;53.70;;;;;;4943234;29;20074;-83
2021/03/22 11:53:31;;;;;;;4.03;0.25;;;13.40;53.80;;;;;;4960212;28;20034;-81
2021/03/22 11:56:14;;;;;;;5.15;0.35;;;13.60;53.60;;;;;;4946444;28;20050;-80
2021/03/22 11:58:41;;;;;;;0.30;0.20;;;13.70;53.50;;;;;;4966446;28;20053;-80
2021/03/22 12:01:24;;;;;;;0.43;0.10;;;13.80;53.10;;;;;;4941462;28;20030;-80
2021/03/22 12:04:04;;;;;;;2.42;0.13;;;13.90;53.20;;;;;;4970231;28;20031;-80
2021/03/22 12:06:51;;;;;;;0.30;0.20;;;13.90;52.90;;;;;;4949990;29;20054;-80
2021/03/22 12:09:18;;;;;;;0.80;0.50;;;14.00;52.80;;;;;;4939762;29;20052;-80
2021/03/22 12:11:44;;;;;;;0.15;0.00;;;14.00;52.40;;;;;;4955594;28;20035;-80
2021/03/22 12:14:10;;;;;;;0.88;0.30;;;13.90;52.40;;;;;;4962003;28;20496;-80
2021/03/22 12:16:36;;;;;;;6.50;1.27;;;13.90;52.40;;;;;;4927080;29;20033;-80
2021/03/22 12:19:14;;;;;;;0.28;0.20;;;13.90;52.40;;;;;;4937338;29;20469;-80
2021/03/22 12:21:41;;;;;;;0.65;0.30;;;13.90;52.40;;;;;;4947387;29;20028;-80
2021/03/22 12:24:11;;;;;;;0.00;0.00;;;13.90;52.10;;;;;;4933606;29;20031;-81
2021/03/22 12:26:37;;;;;;;1.23;0.70;;;13.80;51.90;;;;;;4938472;29;20038;-80
2021/03/22 12:29:05;;;;;;;0.20;0.20;;;13.80;52.00;;;;;;4931018;29;20306;-79
2021/03/22 12:31:43;;;;;;;0.30;0.00;;;13.90;51.90;;;;;;4940821;28;20405;-80
2021/03/22 12:34:13;;;;;;;1.23;0.30;;;13.80;51.70;;;;;;4922997;29;20055;-80
2021/03/22 12:36:40;;;;;;;4.15;0.40;;;13.80;51.70;;;;;;4947025;29;20031;-80
2021/03/22 12:39:21;;;;;;;7.03;0.25;;;13.90;51.80;;;;;;4947192;29;20039;-80
2021/03/22 12:41:47;;;;;;;;;;;13.90;51.50;;;;;;4937107;29;20047;-80
2021/03/22 12:44:13;;;;;;;1.35;0.85;;;13.90;51.40;;;;;;4945457;28;20367;-81
2021/03/22 12:46:39;;;;;;;1.23;0.38;;;13.70;51.40;;;;;;4949094;28;20050;-80
2021/03/22 12:49:05;;;;;;;1.40;0.45;;;13.70;51.50;;;;;;4948856;29;20031;-82
2021/03/22 12:51:32;;;;;;;0.00;0.00;;;13.70;51.60;;;;;;4949128;29;20043;-81
2021/03/22 12:53:58;;;;;;;0.40;0.10;;;13.80;51.50;;;;;;4955009;28;20048;-80
2021/03/22 12:56:26;;;;;;;0.68;0.40;;;13.90;51.40;;;;;;4943985;29;20046;-80
2021/03/22 12:58:56;;;;;;;11.77;0.73;;;14.00;51.30;;;;;;4943901;29;20031;-79
2021/03/22 13:01:23;;;;;;;1.02;0.38;;;14.20;51.20;;;;;;4939272;28;20408;-82
2021/03/22 13:03:49;;;;;;;2.13;0.50;;;14.20;51.00;;;;;;4935972;29;20358;-82
2021/03/22 13:06:15;;;;;;;3.85;0.75;;;14.30;50.90;;;;;;4946262;28;20059;-82
2021/03/22 13:08:42;;;;;;;0.60;0.28;;;14.20;51.00;;;;;;4929305;29;20040;-81
2021/03/22 13:11:08;;;;;;;0.28;0.10;;;14.30;51.10;;;;;;4937702;29;20043;-80
2021/03/22 13:13:35;;;;;;;0.28;0.10;;;14.40;51.10;;;;;;4934200;29;20048;-80
2021/03/22 13:16:01;;;;;;;1.00;0.57;;;14.50;50.80;;;;;;4937952;28;20478;-80
2021/03/22 13:18:29;;;;;;;0.65;0.13;;;14.70;51.00;;;;;;4932552;29;20055;-81